Time;durP1;ratioP1;P1;durP2;ratioP2;P2;SDS_P1;SDS_P2;PMS_P1;PMS_P2;Temp;Humidity;BMP_temperature;BMP_pressure;BME280_temperature;BME280_humidity;BME280_pressure;Samples;Min_cycle;Max_cycle;Signal;HPM_P1;HPM_P2
2022/10/25 00:01:51;;;;;;;6.25;1.80;;;;;;;;;;4991822;28;20033;-78
2022/10/25 00:04:17;;;;;;;3.97;2.42;;;;;;;;;;4963879;28;20347;-78
2022/10/25 00:06:43;;;;;;;2.50;1.90;;;;;;;;;;4977719;28;20038;-78
2022/10/25 00:09:10;;;;;;;3.58;2.22;;;;;;;;;;4971008;28;20117;-78
2022/10/25 00:11:36;;;;;;;5.13;2.67;;;;;;;;;;4971844;28;20023;-78
2022/10/25 00:14:04;;;;;;;3.83;2.17;;;;;;;;;;4986717;28;20110;-79
2022/10/25 00:16:31;;;;;;;5.88;2.20;;;;;;;;;;4968400;28;20058;-78
2022/10/25 00:18:57;;;;;;;3.38;1.92;;;;;;;;;;4970165;28;20038;-78
2022/10/25 00:21:23;;;;;;;4.50;2.00;;;;;;;;;;4974903;28;20101;-79
2022/10/25 00:23:50;;;;;;;3.85;2.15;;;;;;;;;;4967650;28;20637;-78
2022/10/25 00:26:16;;;;;;;4.68;2.30;;;;;;;;;;4988533;28;20041;-78
2022/10/25 00:28:42;;;;;;;4.35;2.50;;;;;;;;;;4966285;28;20034;-78
2022/10/25 00:31:10;;;;;;;3.35;2.28;;;;;;;;;;4971520;28;20027;-78
2022/10/25 00:33:37;;;;;;;6.15;2.70;;;;;;;;;;4971864;28;20031;-78
2022/10/25 00:36:07;;;;;;;5.10;2.50;;;;;;;;;;4970512;28;20058;-78
2022/10/25 00:38:34;;;;;;;2.80;2.05;;;;;;;;;;4979291;28;20034;-78
2022/10/25 00:41:00;;;;;;;5.25;2.50;;;;;;;;;;4971924;28;20428;-78
2022/10/25 00:43:34;;;;;;;3.42;2.35;;;;;;;;;;4994884;28;20037;-78
2022/10/25 00:46:02;;;;;;;3.53;2.70;;;;;;;;;;4971635;28;20033;-79
2022/10/25 00:48:29;;;;;;;2.58;2.28;;;;;;;;;;4972338;28;20026;-78
2022/10/25 00:50:55;;;;;;;6.03;2.95;;;;;;;;;;4974419;28;20031;-78
2022/10/25 00:53:22;;;;;;;6.13;2.50;;;;;;;;;;4965568;28;20030;-78
2022/10/25 00:55:53;;;;;;;3.67;2.50;;;;;;;;;;4967098;28;20027;-78
2022/10/25 00:58:20;;;;;;;2.58;2.20;;;;;;;;;;4971387;28;20041;-78
2022/10/25 01:00:47;;;;;;;4.28;2.17;;;;;;;;;;4964409;28;20038;-78
2022/10/25 01:03:16;;;;;;;5.18;2.28;;;;;;;;;;4969771;28;20019;-78
2022/10/25 01:05:42;;;;;;;4.30;2.60;;;;;;;;;;4972231;28;20504;-78
2022/10/25 01:08:08;;;;;;;4.07;2.03;;;;;;;;;;4958917;28;20071;-79
2022/10/25 01:10:35;;;;;;;3.33;2.30;;;;;;;;;;4976610;28;20031;-78
2022/10/25 01:13:01;;;;;;;3.88;2.00;;;;;;;;;;4981391;28;20535;-78
2022/10/25 01:15:33;;;;;;;2.28;2.03;;;;;;;;;;4967657;28;20512;-78
2022/10/25 01:17:59;;;;;;;8.40;2.33;;;;;;;;;;4970224;28;20026;-78
2022/10/25 01:20:51;;;;;;;5.22;2.30;;;;;;;;;;4967580;28;20019;-78
2022/10/25 01:23:36;;;;;;;2.55;1.95;;;;;;;;;;4966667;28;20563;-78
2022/10/25 01:26:11;;;;;;;2.87;2.00;;;;;;;;;;4974889;28;20110;-78
2022/10/25 01:28:40;;;;;;;2.53;2.13;;;;;;;;;;4966490;28;20035;-78
2022/10/25 01:31:06;;;;;;;3.80;2.17;;;;;;;;;;4968328;28;20082;-78
2022/10/25 01:33:32;;;;;;;6.63;2.15;;;;;;;;;;4987331;28;20058;-78
2022/10/25 01:36:02;;;;;;;6.90;2.17;;;;;;;;;;4984913;28;20416;-78
2022/10/25 01:38:28;;;;;;;3.03;2.10;;;;;;;;;;4967683;28;20177;-78
2022/10/25 01:40:57;;;;;;;5.13;2.10;;;;;;;;;;4966717;28;20046;-78
2022/10/25 01:43:28;;;;;;;5.25;2.00;;;;;;;;;;4970635;28;20019;-78
2022/10/25 01:45:58;;;;;;;2.72;2.00;;;;;;;;;;4980279;28;20038;-79
2022/10/25 01:48:31;;;;;;;4.50;2.03;;;;;;;;;;4970801;28;20019;-78
2022/10/25 01:51:03;;;;;;;2.72;1.88;;;;;;;;;;4985426;28;20539;-78
2022/10/25 01:53:29;;;;;;;4.40;1.95;;;;;;;;;;4969748;28;20027;-78
2022/10/25 01:55:57;;;;;;;4.38;2.38;;;;;;;;;;4979543;28;20022;-78
2022/10/25 01:58:38;;;;;;;5.97;2.20;;;;;;;;;;4967115;28;20023;-78
2022/10/25 02:01:27;;;;;;;3.67;2.00;;;;;;;;;;4962940;28;20472;-78
2022/10/25 02:04:06;;;;;;;3.15;1.92;;;;;;;;;;4971192;28;20082;-78
2022/10/25 02:07:01;;;;;;;4.32;2.10;;;;;;;;;;4978057;28;20073;-77
2022/10/25 02:09:31;;;;;;;6.05;1.90;;;;;;;;;;4959384;28;20122;-78
2022/10/25 02:11:58;;;;;;;4.20;2.20;;;;;;;;;;4971543;28;20476;-78
2022/10/25 02:14:24;;;;;;;3.67;1.90;;;;;;;;;;4969495;28;20089;-78
2022/10/25 02:17:00;;;;;;;3.13;1.80;;;;;;;;;;4969171;28;20571;-78
2022/10/25 02:19:37;;;;;;;2.60;1.83;;;;;;;;;;4962144;28;20077;-78
2022/10/25 02:22:05;;;;;;;4.78;2.00;;;;;;;;;;4965691;28;20077;-78
2022/10/25 02:24:31;;;;;;;3.72;2.10;;;;;;;;;;4975572;28;20387;-78
2022/10/25 02:26:58;;;;;;;5.35;2.00;;;;;;;;;;4975658;28;20031;-78
2022/10/25 02:29:25;;;;;;;2.38;2.00;;;;;;;;;;4969316;28;20212;-78
2022/10/25 02:31:51;;;;;;;2.10;1.73;;;;;;;;;;4981751;28;20058;-78
2022/10/25 02:34:18;;;;;;;4.03;2.28;;;;;;;;;;4971111;28;20050;-78
2022/10/25 02:36:48;;;;;;;4.47;2.15;;;;;;;;;;4973741;28;20081;-78
2022/10/25 02:39:14;;;;;;;2.42;2.15;;;;;;;;;;4970533;28;20021;-78
2022/10/25 02:41:40;;;;;;;4.03;1.95;;;;;;;;;;4974078;28;20633;-78
2022/10/25 02:44:06;;;;;;;3.22;1.88;;;;;;;;;;4972415;28;20058;-78
2022/10/25 02:46:32;;;;;;;2.22;1.85;;;;;;;;;;4974004;28;20026;-78
2022/10/25 02:48:58;;;;;;;3.95;2.20;;;;;;;;;;4964416;28;20070;-78
2022/10/25 02:51:24;;;;;;;3.47;1.98;;;;;;;;;;4971805;28;20416;-79
2022/10/25 02:53:50;;;;;;;2.30;1.85;;;;;;;;;;4963167;28;20038;-78
2022/10/25 02:56:18;;;;;;;3.70;2.10;;;;;;;;;;4968751;28;20051;-78
2022/10/25 02:58:45;;;;;;;5.22;2.15;;;;;;;;;;4977571;28;20112;-78
2022/10/25 03:01:11;;;;;;;6.85;2.22;;;;;;;;;;4970161;28;20047;-78
2022/10/25 03:03:38;;;;;;;2.55;1.88;;;;;;;;;;4972303;28;20019;-78
2022/10/25 03:06:04;;;;;;;5.88;2.17;;;;;;;;;;4972680;28;20375;-78
2022/10/25 03:08:31;;;;;;;4.25;2.03;;;;;;;;;;4984123;28;20141;-78
2022/10/25 03:10:57;;;;;;;5.05;2.00;;;;;;;;;;4970183;28;20035;-78
2022/10/25 03:13:23;;;;;;;3.05;2.22;;;;;;;;;;4972746;28;20027;-78
2022/10/25 03:15:49;;;;;;;9.02;2.25;;;;;;;;;;4969919;28;20027;-78
2022/10/25 03:18:16;;;;;;;8.35;2.97;;;;;;;;;;4969046;28;20396;-78
2022/10/25 03:20:42;;;;;;;3.72;1.88;;;;;;;;;;4972482;28;20029;-78
2022/10/25 03:23:09;;;;;;;5.07;2.20;;;;;;;;;;4972475;28;20451;-78
2022/10/25 03:25:35;;;;;;;2.80;1.77;;;;;;;;;;4973837;28;20034;-78
2022/10/25 03:28:01;;;;;;;7.57;2.10;;;;;;;;;;4976000;28;20034;-78
2022/10/25 03:30:28;;;;;;;3.30;1.90;;;;;;;;;;4976143;28;20027;-78
2022/10/25 03:32:54;;;;;;;4.03;1.75;;;;;;;;;;4973482;28;20027;-78
2022/10/25 03:35:20;;;;;;;4.10;2.00;;;;;;;;;;4974199;28;20027;-78
2022/10/25 03:37:50;;;;;;;3.92;2.22;;;;;;;;;;4974660;28;20491;-78
2022/10/25 03:40:17;;;;;;;3.22;2.03;;;;;;;;;;4977802;28;20031;-77
2022/10/25 03:42:43;;;;;;;5.32;2.13;;;;;;;;;;4963077;28;20026;-78
2022/10/25 03:45:10;;;;;;;3.38;2.00;;;;;;;;;;4971414;28;20038;-79
2022/10/25 03:47:36;;;;;;;2.83;2.08;;;;;;;;;;4975000;28;20031;-79
2022/10/25 03:50:03;;;;;;;2.75;1.95;;;;;;;;;;4972423;28;20030;-78
2022/10/25 03:52:29;;;;;;;3.20;2.13;;;;;;;;;;4977300;28;20026;-77
2022/10/25 03:54:55;;;;;;;4.05;2.30;;;;;;;;;;4974607;28;20062;-78
2022/10/25 03:57:21;;;;;;;5.32;1.95;;;;;;;;;;4974371;28;20079;-79
2022/10/25 03:59:48;;;;;;;5.95;2.38;;;;;;;;;;4974189;28;20031;-78
2022/10/25 04:02:14;;;;;;;2.25;1.90;;;;;;;;;;4973215;28;20034;-78
2022/10/25 04:04:40;;;;;;;3.05;2.05;;;;;;;;;;4977340;28;20035;-78
2022/10/25 04:07:06;;;;;;;5.07;1.90;;;;;;;;;;4973280;28;20034;-78
2022/10/25 04:09:33;;;;;;;6.85;2.53;;;;;;;;;;4973703;28;20042;-78
2022/10/25 04:11:59;;;;;;;5.82;2.20;;;;;;;;;;4982839;28;20035;-78
2022/10/25 04:14:25;;;;;;;3.88;2.00;;;;;;;;;;4985905;28;20034;-78
2022/10/25 04:16:51;;;;;;;3.92;2.50;;;;;;;;;;4978255;28;20049;-78
2022/10/25 04:19:17;;;;;;;4.53;2.20;;;;;;;;;;4971828;28;20392;-78
2022/10/25 04:21:43;;;;;;;4.40;2.03;;;;;;;;;;4973551;28;20026;-78
2022/10/25 04:24:09;;;;;;;3.97;2.42;;;;;;;;;;4965963;28;20495;-77
2022/10/25 04:26:36;;;;;;;3.88;2.00;;;;;;;;;;4973165;28;20034;-78
2022/10/25 04:29:03;;;;;;;2.75;2.03;;;;;;;;;;4973275;28;20034;-79
2022/10/25 04:31:29;;;;;;;4.78;1.67;;;;;;;;;;4972041;28;20413;-78
2022/10/25 04:33:55;;;;;;;2.75;2.10;;;;;;;;;;4987906;28;20031;-78
2022/10/25 04:36:22;;;;;;;4.85;2.08;;;;;;;;;;4974841;28;20050;-78
2022/10/25 04:38:52;;;;;;;3.22;1.92;;;;;;;;;;4973807;28;20031;-78
2022/10/25 04:41:18;;;;;;;3.42;1.83;;;;;;;;;;4974302;28;20014;-78
2022/10/25 04:43:44;;;;;;;3.53;1.90;;;;;;;;;;4973437;28;20128;-78
2022/10/25 04:46:10;;;;;;;5.10;2.08;;;;;;;;;;4972989;28;20027;-79
2022/10/25 04:48:40;;;;;;;5.05;1.80;;;;;;;;;;4976658;28;20031;-78
2022/10/25 04:51:07;;;;;;;2.70;1.80;;;;;;;;;;4968307;28;20490;-79
2022/10/25 04:53:33;;;;;;;4.20;2.67;;;;;;;;;;4989360;28;20098;-77
2022/10/25 04:56:00;;;;;;;5.22;3.13;;;;;;;;;;4970557;28;20395;-75
2022/10/25 04:58:27;;;;;;;8.60;1.95;;;;;;;;;;4967514;28;20368;-77
2022/10/25 05:00:53;;;;;;;3.88;1.85;;;;;;;;;;4964806;28;20050;-77
2022/10/25 05:03:20;;;;;;;7.70;2.35;;;;;;;;;;4960573;28;20046;-77
2022/10/25 05:05:46;;;;;;;5.32;2.33;;;;;;;;;;4970081;28;20027;-76
2022/10/25 05:08:12;;;;;;;7.40;2.17;;;;;;;;;;4968834;28;20051;-78
2022/10/25 05:10:38;;;;;;;5.43;2.22;;;;;;;;;;4990999;28;20563;-77
2022/10/25 05:13:04;;;;;;;4.78;2.17;;;;;;;;;;4972131;28;20031;-77
2022/10/25 05:15:30;;;;;;;4.35;2.20;;;;;;;;;;4968907;28;20789;-77
2022/10/25 05:17:57;;;;;;;9.98;2.30;;;;;;;;;;4968193;28;20030;-78
2022/10/25 05:20:23;;;;;;;4.25;1.98;;;;;;;;;;4973212;28;20046;-78
2022/10/25 05:22:49;;;;;;;3.05;2.55;;;;;;;;;;4975137;28;20026;-79
2022/10/25 05:25:15;;;;;;;5.90;1.83;;;;;;;;;;4979868;28;20031;-79
2022/10/25 05:27:42;;;;;;;3.97;2.10;;;;;;;;;;4977244;28;20035;-79
2022/10/25 05:30:08;;;;;;;5.75;2.22;;;;;;;;;;4975550;28;20055;-79
2022/10/25 05:32:34;;;;;;;6.75;2.35;;;;;;;;;;4970168;28;20031;-79
2022/10/25 05:35:00;;;;;;;5.00;2.15;;;;;;;;;;4969524;28;20799;-79
2022/10/25 05:37:26;;;;;;;6.13;2.92;;;;;;;;;;4976235;28;20046;-79
2022/10/25 05:39:53;;;;;;;6.95;2.15;;;;;;;;;;4972962;28;20035;-78
2022/10/25 05:42:19;;;;;;;2.40;1.92;;;;;;;;;;4971139;28;20077;-79
2022/10/25 05:44:45;;;;;;;4.03;1.80;;;;;;;;;;4974759;28;20054;-79
2022/10/25 05:47:11;;;;;;;7.32;2.63;;;;;;;;;;4972119;28;20088;-79
2022/10/25 05:49:39;;;;;;;4.97;1.85;;;;;;;;;;4973474;28;20058;-79
2022/10/25 05:52:06;;;;;;;3.45;1.90;;;;;;;;;;4975316;28;20034;-79
2022/10/25 05:54:32;;;;;;;5.18;2.40;;;;;;;;;;4998200;28;20034;-79
2022/10/25 05:56:59;;;;;;;5.75;1.98;;;;;;;;;;4975162;28;20747;-78
2022/10/25 05:59:25;;;;;;;2.83;1.90;;;;;;;;;;4975599;28;20060;-79
2022/10/25 06:01:51;;;;;;;7.68;1.98;;;;;;;;;;4977593;28;20059;-79
2022/10/25 06:04:17;;;;;;;5.00;2.00;;;;;;;;;;4981064;28;20110;-78
2022/10/25 06:06:44;;;;;;;3.92;2.00;;;;;;;;;;4986686;28;20035;-79
2022/10/25 06:09:11;;;;;;;4.38;1.90;;;;;;;;;;4980216;28;20475;-79
2022/10/25 06:11:37;;;;;;;3.15;2.00;;;;;;;;;;4978939;28;20041;-79
2022/10/25 06:14:04;;;;;;;5.20;2.20;;;;;;;;;;4977021;28;20030;-79
2022/10/25 06:16:30;;;;;;;6.55;2.38;;;;;;;;;;4993775;28;20033;-79
2022/10/25 06:18:58;;;;;;;6.57;2.30;;;;;;;;;;4979923;28;20072;-79
2022/10/25 06:21:27;;;;;;;4.15;2.05;;;;;;;;;;4973892;28;20035;-79
2022/10/25 06:23:54;;;;;;;5.18;2.00;;;;;;;;;;4972768;28;20038;-78
2022/10/25 06:26:24;;;;;;;3.83;2.03;;;;;;;;;;4980488;28;20042;-78
2022/10/25 06:28:51;;;;;;;4.57;1.95;;;;;;;;;;4987130;28;20026;-79
2022/10/25 06:31:18;;;;;;;5.63;1.98;;;;;;;;;;4973337;28;20031;-78
2022/10/25 06:33:45;;;;;;;5.60;2.00;;;;;;;;;;4987529;28;20049;-78
2022/10/25 06:36:13;;;;;;;4.35;2.28;;;;;;;;;;4986397;28;20015;-79
2022/10/25 06:38:40;;;;;;;4.53;1.88;;;;;;;;;;4991734;28;20042;-79
2022/10/25 06:41:07;;;;;;;6.85;2.08;;;;;;;;;;4974043;28;20480;-79
2022/10/25 06:43:33;;;;;;;3.95;2.05;;;;;;;;;;4978517;28;20038;-79
2022/10/25 06:46:11;;;;;;;4.95;2.10;;;;;;;;;;4978531;28;20027;-79
2022/10/25 06:48:37;;;;;;;4.65;2.10;;;;;;;;;;4978772;28;20039;-78
2022/10/25 06:51:05;;;;;;;4.72;2.00;;;;;;;;;;4984899;28;20507;-78
2022/10/25 06:53:31;;;;;;;6.68;2.15;;;;;;;;;;4972163;28;20026;-78
2022/10/25 06:56:01;;;;;;;5.47;2.53;;;;;;;;;;4985308;28;20027;-76
2022/10/25 06:58:31;;;;;;;6.18;2.03;;;;;;;;;;4973719;28;20022;-78
2022/10/25 07:01:01;;;;;;;4.65;2.10;;;;;;;;;;4972240;28;20392;-78
2022/10/25 07:03:30;;;;;;;6.75;2.20;;;;;;;;;;4981872;28;20019;-78
2022/10/25 07:06:08;;;;;;;6.75;2.38;;;;;;;;;;4979450;28;20026;-78
2022/10/25 07:08:38;;;;;;;4.70;1.75;;;;;;;;;;4972581;28;20471;-78
2022/10/25 07:11:04;;;;;;;2.67;2.25;;;;;;;;;;4993516;28;20023;-78
2022/10/25 07:13:31;;;;;;;4.15;1.80;;;;;;;;;;4971007;28;20061;-77
2022/10/25 07:16:04;;;;;;;4.35;1.88;;;;;;;;;;4968012;28;20031;-79
2022/10/25 07:18:31;;;;;;;6.75;2.40;;;;;;;;;;4992268;28;20043;-79
2022/10/25 07:21:20;;;;;;;3.30;1.70;;;;;;;;;;4975705;28;20476;-79
2022/10/25 07:23:47;;;;;;;2.45;1.90;;;;;;;;;;4965422;28;20043;-79
2022/10/25 07:26:15;;;;;;;3.78;2.22;;;;;;;;;;4977534;28;20026;-80
2022/10/25 07:28:42;;;;;;;5.38;1.83;;;;;;;;;;4985611;28;20054;-79
2022/10/25 07:31:11;;;;;;;5.03;2.00;;;;;;;;;;4976713;28;20113;-78
2022/10/25 07:33:37;;;;;;;4.60;1.90;;;;;;;;;;4978646;28;20033;-78
2022/10/25 07:36:04;;;;;;;4.88;1.70;;;;;;;;;;4977498;28;20480;-78
2022/10/25 07:38:31;;;;;;;5.35;2.50;;;;;;;;;;4976560;28;20019;-78
2022/10/25 07:41:00;;;;;;;6.97;2.60;;;;;;;;;;4977485;28;20095;-78
2022/10/25 07:43:27;;;;;;;2.50;2.00;;;;;;;;;;4974141;28;20600;-78
2022/10/25 07:45:53;;;;;;;4.50;2.90;;;;;;;;;;4976580;28;20087;-78
2022/10/25 07:48:19;;;;;;;4.88;3.17;;;;;;;;;;4992467;28;20073;-78
2022/10/25 07:50:45;;;;;;;5.60;2.00;;;;;;;;;;4971838;28;20031;-78
2022/10/25 07:53:11;;;;;;;2.67;2.03;;;;;;;;;;4979301;28;20023;-79
2022/10/25 07:55:38;;;;;;;4.20;1.90;;;;;;;;;;4974943;28;20549;-79
2022/10/25 07:58:05;;;;;;;2.28;1.90;;;;;;;;;;4976727;28;20026;-78
2022/10/25 08:00:31;;;;;;;3.55;2.00;;;;;;;;;;4973888;28;20054;-78
2022/10/25 08:02:57;;;;;;;5.07;1.92;;;;;;;;;;4978717;28;20169;-79
2022/10/25 08:05:24;;;;;;;5.32;2.08;;;;;;;;;;4973185;28;20109;-78
2022/10/25 08:07:50;;;;;;;2.42;2.03;;;;;;;;;;4976986;28;20057;-79
2022/10/25 08:10:19;;;;;;;3.45;1.90;;;;;;;;;;4982843;28;20097;-79
2022/10/25 08:12:45;;;;;;;6.10;2.20;;;;;;;;;;4975679;28;20027;-78
2022/10/25 08:15:11;;;;;;;5.65;2.00;;;;;;;;;;4966290;28;20034;-78
2022/10/25 08:17:38;;;;;;;4.10;1.90;;;;;;;;;;4980653;28;20023;-77
2022/10/25 08:20:04;;;;;;;3.83;1.88;;;;;;;;;;4971197;28;20035;-78
2022/10/25 08:22:30;;;;;;;4.00;2.05;;;;;;;;;;4975973;28;20042;-78
2022/10/25 08:24:56;;;;;;;4.35;2.13;;;;;;;;;;4977746;28;20023;-80
2022/10/25 08:27:22;;;;;;;4.38;2.47;;;;;;;;;;4973702;28;20058;-79
2022/10/25 08:29:49;;;;;;;6.68;2.30;;;;;;;;;;4972199;28;20070;-77
2022/10/25 08:32:15;;;;;;;3.15;1.77;;;;;;;;;;4985379;28;20112;-78
2022/10/25 08:34:41;;;;;;;7.03;2.63;;;;;;;;;;4983372;28;20042;-79
2022/10/25 08:37:10;;;;;;;4.65;2.10;;;;;;;;;;4997038;22;20090;-81
2022/10/25 08:39:39;;;;;;;6.97;2.38;;;;;;;;;;4982083;28;20030;-80
2022/10/25 08:42:05;;;;;;;3.47;2.33;;;;;;;;;;4983075;28;20051;-79
2022/10/25 08:44:38;;;;;;;4.05;1.75;;;;;;;;;;4970075;28;20031;-79
2022/10/25 08:47:17;;;;;;;5.38;2.00;;;;;;;;;;4979471;28;20031;-80
2022/10/25 08:49:46;;;;;;;4.65;2.40;;;;;;;;;;4985968;28;20050;-80
2022/10/25 08:52:31;;;;;;;5.03;2.90;;;;;;;;;;4971808;28;20038;-80
2022/10/25 08:55:11;;;;;;;2.25;1.70;;;;;;;;;;4980532;28;20269;-81
2022/10/25 08:57:43;;;;;;;8.07;2.20;;;;;;;;;;4995138;28;20029;-80
2022/10/25 09:00:21;;;;;;;5.45;2.40;;;;;;;;;;4997950;28;20046;-80
2022/10/25 09:03:07;;;;;;;5.72;2.13;;;;;;;;;;4989070;28;20030;-80
2022/10/25 09:05:38;;;;;;;2.10;1.83;;;;;;;;;;4992337;28;20038;-80
2022/10/25 09:08:15;;;;;;;5.60;2.25;;;;;;;;;;4984836;28;20113;-81
2022/10/25 09:10:50;;;;;;;8.00;2.17;;;;;;;;;;4989110;28;20037;-81
2022/10/25 09:13:28;;;;;;;3.13;1.85;;;;;;;;;;4995787;28;20010;-83
2022/10/25 09:16:00;;;;;;;5.78;2.45;;;;;;;;;;5003272;28;20038;-81
2022/10/25 09:18:46;;;;;;;3.55;2.00;;;;;;;;;;5001791;28;20003;-81
2022/10/25 09:21:20;;;;;;;4.45;1.90;;;;;;;;;;4996795;28;20023;-83
2022/10/25 09:23:53;;;;;;;5.28;1.90;;;;;;;;;;4992837;28;20019;-83
2022/10/25 09:26:34;;;;;;;4.60;1.92;;;;;;;;;;4996626;28;20026;-81
2022/10/25 09:29:07;;;;;;;4.20;1.92;;;;;;;;;;4997883;28;20019;-82
2022/10/25 09:31:37;;;;;;;4.88;1.98;;;;;;;;;;4995130;28;20030;-82
2022/10/25 09:34:08;;;;;;;5.72;2.00;;;;;;;;;;4992935;28;20050;-81
2022/10/25 09:36:45;;;;;;;8.30;2.58;;;;;;;;;;4984342;28;20057;-82
2022/10/25 09:39:26;;;;;;;2.05;1.70;;;;;;;;;;5002500;28;20030;-81
2022/10/25 09:41:56;;;;;;;4.43;1.90;;;;;;;;;;4992998;28;20033;-82
2022/10/25 09:44:31;;;;;;;5.80;2.72;;;;;;;;;;4998169;28;20023;-81
2022/10/25 09:47:01;;;;;;;;;;;;;;;;;;5009341;28;20098;-82
2022/10/25 09:49:30;;;;;;;5.53;2.30;;;;;;;;;;4991137;28;19906;-83
2022/10/25 09:52:18;;;;;;;4.82;1.80;;;;;;;;;;4988689;28;20043;-82
2022/10/25 09:54:51;;;;;;;5.30;2.30;;;;;;;;;;4995442;28;20031;-82
2022/10/25 09:57:19;;;;;;;3.55;2.05;;;;;;;;;;4981465;28;20054;-81
2022/10/25 09:59:53;;;;;;;3.38;1.60;;;;;;;;;;4979866;28;20078;-83
2022/10/25 10:02:23;;;;;;;4.60;2.08;;;;;;;;;;4994325;28;20081;-80
2022/10/25 10:04:57;;;;;;;6.45;2.88;;;;;;;;;;5006453;28;20031;-81
2022/10/25 10:07:30;;;;;;;6.15;2.00;;;;;;;;;;4992433;28;20029;-81
2022/10/25 10:09:59;;;;;;;3.28;2.30;;;;;;;;;;4995792;28;20116;-80
2022/10/25 10:12:43;;;;;;;3.35;1.80;;;;;;;;;;4980142;28;20037;-82
2022/10/25 10:15:17;;;;;;;7.53;2.58;;;;;;;;;;4984031;28;20031;-81
2022/10/25 10:17:46;;;;;;;3.53;1.73;;;;;;;;;;4986781;28;20473;-83
2022/10/25 10:20:16;;;;;;;2.47;1.92;;;;;;;;;;4990600;28;20027;-83
2022/10/25 10:22:47;;;;;;;3.47;2.20;;;;;;;;;;4979906;28;20023;-82
2022/10/25 10:25:26;;;;;;;6.13;2.47;;;;;;;;;;5003946;28;20026;-82
2022/10/25 10:27:55;;;;;;;4.95;2.15;;;;;;;;;;4993240;28;20065;-81
2022/10/25 10:30:29;;;;;;;2.05;1.60;;;;;;;;;;4994782;28;20094;-83
2022/10/25 10:32:56;;;;;;;4.57;1.95;;;;;;;;;;4993324;28;20030;-82
2022/10/25 10:35:27;;;;;;;3.97;1.90;;;;;;;;;;4990415;28;20053;-82
2022/10/25 10:38:12;;;;;;;4.70;1.90;;;;;;;;;;4959014;28;1304253;-81
2022/10/25 10:40:41;;;;;;;3.15;1.60;;;;;;;;;;4993769;28;20034;-81
2022/10/25 10:43:33;;;;;;;4.95;2.20;;;;;;;;;;4983083;28;20023;-82
2022/10/25 10:46:04;;;;;;;5.93;2.10;;;;;;;;;;4990953;28;20018;-81
2022/10/25 10:48:35;;;;;;;2.25;1.70;;;;;;;;;;4998928;28;20030;-82
2022/10/25 10:51:04;;;;;;;4.50;1.70;;;;;;;;;;4998050;28;20034;-82
2022/10/25 10:53:34;;;;;;;3.45;1.63;;;;;;;;;;4995453;28;20054;-82
2022/10/25 10:56:04;;;;;;;5.57;1.92;;;;;;;;;;4984527;28;20027;-82
2022/10/25 10:58:33;;;;;;;5.40;1.88;;;;;;;;;;4987818;28;20075;-82
2022/10/25 11:01:06;;;;;;;3.15;2.03;;;;;;;;;;5003371;28;20043;-81
2022/10/25 11:03:38;;;;;;;3.35;2.25;;;;;;;;;;4992275;28;20106;-81
2022/10/25 11:06:08;;;;;;;3.55;1.63;;;;;;;;;;5000048;28;20050;-81
2022/10/25 11:08:34;;;;;;;3.45;1.80;;;;;;;;;;4982687;28;20468;-81
2022/10/25 11:11:12;;;;;;;3.85;1.75;;;;;;;;;;4988746;28;20473;-81
2022/10/25 11:13:39;;;;;;;4.18;1.90;;;;;;;;;;4987921;28;20054;-81
2022/10/25 11:16:17;;;;;;;5.82;1.95;;;;;;;;;;4982896;28;20031;-81
2022/10/25 11:18:43;;;;;;;2.33;1.90;;;;;;;;;;4983016;28;20026;-81
2022/10/25 11:21:09;;;;;;;5.28;1.85;;;;;;;;;;4988007;28;20034;-80
2022/10/25 11:23:48;;;;;;;2.58;1.60;;;;;;;;;;4981621;28;20057;-80
2022/10/25 11:26:16;;;;;;;4.28;2.13;;;;;;;;;;4985785;28;20440;-80
2022/10/25 11:28:52;;;;;;;5.68;2.08;;;;;;;;;;4984176;28;20027;-81
2022/10/25 11:31:30;;;;;;;7.47;2.67;;;;;;;;;;4980554;28;20126;-81
2022/10/25 11:33:58;;;;;;;3.13;1.77;;;;;;;;;;4986947;28;20034;-80
2022/10/25 11:36:36;;;;;;;3.53;1.75;;;;;;;;;;4980407;28;20456;-79
2022/10/25 11:39:14;;;;;;;2.33;1.58;;;;;;;;;;4975332;28;20042;-80
2022/10/25 11:41:45;;;;;;;1.73;1.40;;;;;;;;;;4981482;28;20038;-80
2022/10/25 11:44:17;;;;;;;2.60;1.60;;;;;;;;;;4982576;28;20042;-82
2022/10/25 11:46:59;;;;;;;4.88;1.80;;;;;;;;;;4982339;28;20027;-80
2022/10/25 11:49:28;;;;;;;4.72;1.90;;;;;;;;;;4993458;28;20027;-80
2022/10/25 11:51:54;;;;;;;3.08;1.95;;;;;;;;;;4980525;28;20031;-80
2022/10/25 11:54:41;;;;;;;2.15;1.30;;;;;;;;;;4984606;28;20035;-81
2022/10/25 11:57:30;;;;;;;3.45;1.55;;;;;;;;;;4986979;28;20034;-83
2022/10/25 11:59:59;;;;;;;1.58;1.38;;;;;;;;;;4977650;28;20042;-81
2022/10/25 12:02:44;;;;;;;3.28;1.60;;;;;;;;;;4982050;28;20053;-80
2022/10/25 12:05:13;;;;;;;2.08;1.60;;;;;;;;;;5008191;28;20038;-80
2022/10/25 12:07:58;;;;;;;3.65;1.88;;;;;;;;;;4987913;28;20078;-80
2022/10/25 12:10:24;;;;;;;2.85;1.65;;;;;;;;;;4980525;28;20019;-80
2022/10/25 12:12:54;;;;;;;5.25;2.53;;;;;;;;;;4982666;28;20030;-80
2022/10/25 12:15:29;;;;;;;3.33;1.70;;;;;;;;;;4991712;28;20023;-81
2022/10/25 12:17:55;;;;;;;2.70;2.20;;;;;;;;;;4982787;28;20030;-80
2022/10/25 12:20:23;;;;;;;4.95;1.70;;;;;;;;;;4994377;28;20102;-80
2022/10/25 12:22:51;;;;;;;2.45;1.80;;;;;;;;;;4985023;28;20027;-81
2022/10/25 12:25:23;;;;;;;2.75;1.50;;;;;;;;;;4996909;28;20366;-80
2022/10/25 12:27:54;;;;;;;3.13;1.50;;;;;;;;;;5001722;28;20026;-81
2022/10/25 12:30:20;;;;;;;3.83;1.60;;;;;;;;;;4976764;28;20031;-80
2022/10/25 12:32:56;;;;;;;3.38;1.60;;;;;;;;;;4979594;28;20034;-80
2022/10/25 12:35:25;;;;;;;1.63;1.52;;;;;;;;;;4991443;28;20076;-80
2022/10/25 12:37:53;;;;;;;2.10;1.70;;;;;;;;;;4982821;28;20082;-81
2022/10/25 12:40:20;;;;;;;1.85;1.75;;;;;;;;;;4989499;28;20026;-81
2022/10/25 12:42:53;;;;;;;1.70;1.60;;;;;;;;;;4983448;28;20041;-81
2022/10/25 12:45:37;;;;;;;2.30;1.75;;;;;;;;;;4983207;28;20177;-81
2022/10/25 12:48:22;;;;;;;3.50;1.60;;;;;;;;;;4987163;28;20091;-81
2022/10/25 12:51:04;;;;;;;2.75;1.67;;;;;;;;;;4972995;28;20090;-81
2022/10/25 12:53:44;;;;;;;3.88;1.60;;;;;;;;;;4974011;28;20031;-80
2022/10/25 12:56:20;;;;;;;1.75;1.60;;;;;;;;;;4977759;28;20004;-80
2022/10/25 12:58:45;;;;;;;;;;;;;;;;;;4975224;28;20027;-80
2022/10/25 13:01:14;;;;;;;2.00;1.60;;;;;;;;;;4979283;28;19917;-81
2022/10/25 13:03:59;;;;;;;3.05;1.55;;;;;;;;;;4982682;28;20400;-81
2022/10/25 13:06:39;;;;;;;4.57;1.85;;;;;;;;;;4979775;28;20023;-81
2022/10/25 13:09:08;;;;;;;1.77;1.40;;;;;;;;;;4980886;28;20026;-80
2022/10/25 13:11:36;;;;;;;2.97;1.65;;;;;;;;;;4994368;28;20476;-81
2022/10/25 13:14:03;;;;;;;4.00;1.75;;;;;;;;;;4996406;28;20082;-81
2022/10/25 13:16:30;;;;;;;5.15;1.70;;;;;;;;;;4983833;28;20031;-81
2022/10/25 13:19:15;;;;;;;2.70;1.50;;;;;;;;;;4994420;28;20030;-81
2022/10/25 13:21:53;;;;;;;7.82;2.30;;;;;;;;;;4995557;28;20448;-81
2022/10/25 13:24:38;;;;;;;3.55;2.33;;;;;;;;;;4979472;28;20035;-81
2022/10/25 13:27:43;;;;;;;5.38;1.90;;;;;;;;;;4989439;28;20024;-81
2022/10/25 13:30:18;;;;;;;2.15;1.60;;;;;;;;;;4909032;29;20033;-81
2022/10/25 13:33:04;;;;;;;4.28;1.70;;;;;;;;;;4919390;29;20028;-82
2022/10/25 13:35:50;;;;;;;5.50;1.98;;;;;;;;;;4962364;28;20050;-82
2022/10/25 13:38:23;;;;;;;2.95;1.90;;;;;;;;;;4983059;28;20050;-81
2022/10/25 13:41:09;;;;;;;4.82;1.98;;;;;;;;;;4983993;28;20049;-81
2022/10/25 13:43:35;;;;;;;4.07;1.80;;;;;;;;;;4975815;28;20027;-81
2022/10/25 13:46:02;;;;;;;4.95;1.90;;;;;;;;;;4974767;28;20056;-81
2022/10/25 13:48:33;;;;;;;5.22;2.20;;;;;;;;;;4978501;28;20027;-82
2022/10/25 13:51:01;;;;;;;4.10;1.90;;;;;;;;;;4985894;28;20058;-82
2022/10/25 13:53:36;;;;;;;3.50;1.90;;;;;;;;;;4989381;28;20023;-81
2022/10/25 13:56:03;;;;;;;5.07;2.42;;;;;;;;;;4990362;28;20024;-80
2022/10/25 13:58:29;;;;;;;3.40;2.50;;;;;;;;;;4980979;28;20019;-79
2022/10/25 14:01:17;;;;;;;3.67;2.75;;;;;;;;;;4982418;28;20033;-81
2022/10/25 14:03:53;;;;;;;4.15;2.30;;;;;;;;;;4985057;28;20018;-81
2022/10/25 14:06:29;;;;;;;3.75;1.77;;;;;;;;;;4983294;28;20023;-81
2022/10/25 14:08:59;;;;;;;3.28;1.77;;;;;;;;;;4984236;28;20038;-82
2022/10/25 14:11:44;;;;;;;3.40;2.05;;;;;;;;;;4982175;28;20106;-82
2022/10/25 14:14:19;;;;;;;2.75;1.63;;;;;;;;;;4992067;28;20094;-82
2022/10/25 14:16:59;;;;;;;2.60;1.73;;;;;;;;;;4979146;28;20051;-80
2022/10/25 14:19:28;;;;;;;5.38;1.75;;;;;;;;;;4979393;28;20023;-81
2022/10/25 14:21:54;;;;;;;5.65;2.08;;;;;;;;;;4982168;28;20018;-81
2022/10/25 14:24:21;;;;;;;3.03;1.80;;;;;;;;;;4997586;28;20039;-81
2022/10/25 14:26:57;;;;;;;4.30;1.80;;;;;;;;;;4986798;28;20485;-82
2022/10/25 14:29:25;;;;;;;3.50;1.80;;;;;;;;;;4984382;28;20030;-81
2022/10/25 14:31:51;;;;;;;3.55;2.10;;;;;;;;;;4997025;28;20026;-81
2022/10/25 14:34:19;;;;;;;4.20;1.85;;;;;;;;;;4998585;28;20031;-82
2022/10/25 14:36:50;;;;;;;5.00;1.80;;;;;;;;;;4989808;28;20078;-81
2022/10/25 14:39:17;;;;;;;3.90;1.70;;;;;;;;;;4980621;28;20119;-80
2022/10/25 14:41:54;;;;;;;3.10;1.65;;;;;;;;;;4996131;28;20113;-81
2022/10/25 14:44:26;;;;;;;4.43;2.38;;;;;;;;;;4981188;28;20020;-81
2022/10/25 14:46:53;;;;;;;3.10;1.98;;;;;;;;;;4999020;28;20030;-81
2022/10/25 14:49:19;;;;;;;4.20;1.85;;;;;;;;;;4983892;28;20057;-80
2022/10/25 14:51:46;;;;;;;5.03;1.90;;;;;;;;;;4982485;28;21497;-81
2022/10/25 14:54:12;;;;;;;6.72;2.28;;;;;;;;;;4987590;28;20031;-82
2022/10/25 14:56:40;;;;;;;5.45;2.05;;;;;;;;;;5001952;28;20035;-81
2022/10/25 14:59:13;;;;;;;5.60;2.10;;;;;;;;;;4989604;28;20020;-82
2022/10/25 15:01:40;;;;;;;6.80;2.00;;;;;;;;;;4995466;28;20038;-81